createdAt,value
2018-07-24T00:02:30.203Z,22.13
2018-07-24T00:05:03.164Z,21.50
2018-07-24T00:07:49.528Z,23.43
2018-07-24T00:10:18.775Z,21.67
2018-07-24T00:12:47.226Z,21.27
2018-07-24T00:15:16.162Z,21.80
2018-07-24T00:17:47.911Z,20.43
2018-07-24T00:20:15.532Z,20.63
2018-07-24T00:22:44.467Z,21.47
2018-07-24T00:25:12.007Z,20.00
2018-07-24T00:27:40.831Z,21.37
2018-07-24T00:30:08.461Z,21.40
2018-07-24T00:32:36.021Z,21.03
2018-07-24T00:35:04.258Z,20.80
2018-07-24T00:37:31.814Z,21.67
2018-07-24T00:39:59.357Z,21.47
2018-07-24T00:42:26.910Z,20.33
2018-07-24T00:44:54.500Z,20.90
2018-07-24T00:47:22.054Z,22.43
2018-07-24T00:49:49.618Z,22.00
2018-07-24T00:52:17.207Z,21.40
2018-07-24T00:54:44.954Z,20.57
2018-07-24T00:57:12.536Z,21.70
2018-07-24T00:59:40.091Z,20.57
2018-07-24T01:02:07.668Z,20.90
2018-07-24T01:04:35.235Z,20.50
2018-07-24T01:07:02.791Z,21.67
2018-07-24T01:09:30.418Z,20.23
2018-07-24T01:11:58.035Z,21.20
2018-07-24T01:14:25.602Z,20.20
2018-07-24T01:16:53.165Z,20.43
2018-07-24T01:19:20.699Z,20.87
2018-07-24T01:21:48.227Z,22.00
2018-07-24T01:24:16.418Z,20.90
2018-07-24T01:26:43.989Z,20.90
2018-07-24T01:29:11.567Z,19.80
2018-07-24T01:31:39.559Z,20.13
2018-07-24T01:34:07.158Z,19.47
2018-07-24T01:36:34.780Z,19.00
2018-07-24T01:39:02.430Z,19.90
2018-07-24T01:41:30.008Z,20.47
2018-07-24T01:43:57.588Z,19.23
2018-07-24T01:46:25.975Z,20.70
2018-07-24T01:48:53.568Z,20.20
2018-07-24T01:51:21.118Z,19.20
2018-07-24T01:53:48.631Z,19.27
2018-07-24T01:56:16.208Z,18.80
2018-07-24T01:58:44.322Z,21.67
2018-07-24T02:01:11.874Z,20.63
2018-07-24T02:03:39.414Z,20.50
2018-07-24T02:06:07.037Z,20.40
2018-07-24T02:08:34.617Z,19.20
2018-07-24T02:11:02.188Z,18.53
2018-07-24T02:13:29.739Z,20.93
2018-07-24T02:15:57.358Z,22.50
2018-07-24T02:18:25.774Z,21.87
2018-07-24T02:20:53.330Z,21.07
2018-07-24T02:23:21.843Z,19.30
2018-07-24T02:25:49.388Z,18.93
2018-07-24T02:28:16.926Z,18.73
2018-07-24T02:30:44.483Z,18.83
2018-07-24T02:33:12.060Z,18.30
2018-07-24T02:35:39.574Z,20.07
2018-07-24T02:38:07.159Z,19.37
2018-07-24T02:40:34.708Z,18.83
2018-07-24T02:43:02.250Z,20.70
2018-07-24T02:45:29.832Z,18.80
2018-07-24T02:47:57.417Z,19.23
2018-07-24T02:50:25.033Z,19.77
2018-07-24T02:52:52.609Z,20.80
2018-07-24T02:55:20.202Z,20.03
2018-07-24T02:57:47.748Z,20.53
2018-07-24T03:00:15.271Z,21.47
2018-07-24T03:02:42.877Z,20.90
2018-07-24T03:05:10.448Z,21.67
2018-07-24T03:07:37.981Z,20.03
2018-07-24T03:10:05.585Z,20.80
2018-07-24T03:12:33.167Z,19.20
2018-07-24T03:15:00.745Z,20.20
2018-07-24T03:17:28.322Z,20.77
2018-07-24T03:19:55.895Z,21.43
2018-07-24T03:22:23.479Z,21.20
2018-07-24T03:24:51.039Z,20.40
2018-07-24T03:27:18.633Z,19.63
2018-07-24T03:29:46.163Z,19.37
2018-07-24T03:32:13.776Z,18.97
2018-07-24T03:34:41.348Z,18.33
2018-07-24T03:37:09.865Z,17.30
2018-07-24T03:39:37.494Z,17.57
2018-07-24T03:42:05.834Z,17.43
2018-07-24T03:44:33.369Z,19.00
2018-07-24T03:47:00.926Z,17.57
2018-07-24T03:49:28.538Z,17.07
2018-07-24T03:51:56.108Z,19.03
2018-07-24T03:54:23.684Z,18.50
2018-07-24T03:56:51.171Z,18.80
2018-07-24T03:59:18.764Z,19.20
2018-07-24T04:01:46.344Z,20.93
2018-07-24T04:04:13.892Z,22.10
2018-07-24T04:06:41.521Z,22.13
2018-07-24T04:09:10.032Z,23.03
2018-07-24T04:11:37.743Z,22.07
2018-07-24T04:14:05.375Z,20.70
2018-07-24T04:16:32.877Z,19.80
2018-07-24T04:19:00.502Z,19.03
2018-07-24T04:21:28.065Z,20.80
2018-07-24T04:23:55.665Z,18.50
2018-07-24T04:26:23.206Z,18.10
2018-07-24T04:28:50.787Z,19.73
2018-07-24T04:31:18.409Z,19.13
2018-07-24T04:33:45.890Z,19.80
2018-07-24T04:36:13.470Z,20.47
2018-07-24T04:38:41.043Z,18.87
2018-07-24T04:41:08.663Z,17.67
2018-07-24T04:43:36.243Z,19.47
2018-07-24T04:46:03.998Z,19.33
2018-07-24T04:48:32.050Z,18.53
2018-07-24T04:50:59.665Z,18.60
2018-07-24T04:53:27.321Z,18.67
2018-07-24T04:55:54.932Z,18.20
2018-07-24T04:58:22.472Z,18.00
2018-07-24T05:00:50.054Z,18.77
2018-07-24T05:03:17.630Z,17.53
2018-07-24T05:05:45.221Z,19.43
2018-07-24T05:08:12.769Z,20.47
2018-07-24T05:10:40.405Z,19.57
2018-07-24T05:13:07.992Z,20.60
2018-07-24T05:15:35.591Z,20.90
2018-07-24T05:18:03.125Z,20.53
2018-07-24T05:20:30.679Z,22.17
2018-07-24T05:22:58.271Z,23.13
2018-07-24T05:25:25.834Z,24.10
2018-07-24T05:27:53.635Z,25.20
2018-07-24T05:30:21.313Z,30.97
2018-07-24T05:32:49.449Z,25.83
2018-07-24T05:35:17.006Z,25.60
2018-07-24T05:37:44.643Z,25.40
2018-07-24T05:40:12.259Z,26.07
2018-07-24T05:42:40.511Z,26.53
2018-07-24T05:45:08.107Z,25.60
2018-07-24T05:47:35.681Z,25.97
2018-07-24T05:50:03.405Z,23.93
2018-07-24T05:52:30.995Z,23.73
2018-07-24T05:54:58.569Z,24.73
2018-07-24T05:57:26.146Z,28.40
2018-07-24T05:59:53.804Z,29.80
2018-07-24T06:02:21.427Z,31.30
2018-07-24T06:04:49.103Z,29.70
2018-07-24T06:07:17.710Z,30.07
2018-07-24T06:09:45.547Z,29.93
2018-07-24T06:12:13.091Z,30.70
2018-07-24T06:14:40.659Z,30.00
2018-07-24T06:17:14.850Z,31.30
2018-07-24T06:19:42.442Z,30.20
2018-07-24T06:22:10.037Z,29.90
2018-07-24T06:24:37.609Z,30.47
2018-07-24T06:27:05.200Z,30.03
2018-07-24T06:29:32.907Z,29.70
2018-07-24T06:32:01.497Z,31.47
2018-07-24T06:34:29.228Z,32.37
2018-07-24T06:36:56.860Z,30.87
2018-07-24T06:39:24.451Z,31.30
2018-07-24T06:41:52.842Z,29.00
2018-07-24T06:44:20.581Z,29.83
2018-07-24T06:46:48.100Z,30.73
2018-07-24T06:49:15.675Z,34.07
2018-07-24T06:51:43.532Z,33.03
2018-07-24T06:54:10.921Z,29.10
2018-07-24T06:56:38.606Z,33.00
2018-07-24T06:59:06.288Z,30.23
2018-07-24T07:01:33.929Z,31.03
2018-07-24T07:04:01.556Z,31.00
2018-07-24T07:06:29.093Z,29.83
2018-07-24T07:09:01.778Z,30.53
2018-07-24T07:11:29.769Z,27.83
2018-07-24T07:13:57.415Z,28.50
2018-07-24T07:16:24.955Z,29.93
2018-07-24T07:18:52.518Z,29.40
2018-07-24T07:21:20.096Z,28.70
2018-07-24T07:23:47.630Z,29.60
2018-07-24T07:26:15.162Z,29.87
2018-07-24T07:28:42.702Z,28.73
2018-07-24T07:31:10.868Z,27.40
2018-07-24T07:33:38.497Z,25.60
2018-07-24T07:36:06.122Z,25.77
2018-07-24T07:38:33.733Z,24.60
2018-07-24T07:41:02.195Z,25.57
2018-07-24T07:43:29.700Z,24.60
2018-07-24T07:45:57.309Z,24.63
2018-07-24T07:48:24.927Z,23.40
2018-07-24T07:50:52.477Z,23.97
2018-07-24T07:53:20.896Z,21.80
2018-07-24T07:55:48.492Z,24.33
2018-07-24T07:58:16.078Z,21.80
2018-07-24T08:00:43.678Z,23.70
2018-07-24T08:03:11.301Z,24.43
2018-07-24T08:05:38.881Z,23.63
2018-07-24T08:08:06.451Z,22.53
2018-07-24T08:10:33.980Z,23.27
2018-07-24T08:13:01.545Z,25.47
2018-07-24T08:15:29.119Z,24.93
2018-07-24T08:17:56.699Z,25.37
2018-07-24T08:20:24.264Z,25.30
2018-07-24T08:22:51.758Z,26.63
2018-07-24T08:25:19.369Z,23.93
2018-07-24T08:27:46.990Z,25.50
2018-07-24T08:30:14.550Z,25.40
2018-07-24T08:32:42.253Z,25.70
2018-07-24T08:35:09.831Z,26.00
2018-07-24T08:37:37.416Z,27.20
2018-07-24T08:40:05.078Z,25.20
2018-07-24T08:42:32.713Z,22.63
2018-07-24T08:45:00.259Z,22.87
2018-07-24T08:47:27.746Z,22.37
2018-07-24T08:49:55.364Z,24.70
2018-07-24T08:52:22.995Z,20.60
2018-07-24T08:54:50.843Z,21.70
2018-07-24T08:57:18.140Z,22.10
2018-07-24T08:59:45.705Z,21.40
2018-07-24T09:02:20.017Z,22.30
2018-07-24T09:04:48.088Z,21.97
2018-07-24T09:07:16.597Z,20.60
2018-07-24T09:09:44.220Z,20.47
2018-07-24T09:12:11.801Z,21.20
2018-07-24T09:14:39.336Z,21.23
2018-07-24T09:17:06.972Z,19.80
2018-07-24T09:19:34.550Z,18.87
2018-07-24T09:22:02.757Z,19.00
2018-07-24T09:24:30.415Z,18.70
2018-07-24T09:26:58.075Z,19.70
2018-07-24T09:29:25.587Z,20.67
2018-07-24T09:31:53.183Z,19.83
2018-07-24T09:34:20.778Z,18.10
2018-07-24T09:36:48.406Z,19.73
2018-07-24T09:39:16.017Z,20.67
2018-07-24T09:41:43.626Z,18.83
2018-07-24T09:44:11.341Z,17.33
2018-07-24T09:46:38.965Z,15.63
2018-07-24T09:49:06.579Z,15.77
2018-07-24T09:51:34.159Z,16.73
2018-07-24T09:54:01.910Z,16.63
2018-07-24T09:56:29.591Z,16.97
2018-07-24T09:58:57.138Z,17.40
2018-07-24T10:01:29.320Z,15.80
2018-07-24T10:03:56.910Z,16.63
2018-07-24T10:06:24.551Z,16.53
2018-07-24T10:08:52.203Z,17.40
2018-07-24T10:11:19.784Z,16.47
2018-07-24T10:13:47.357Z,16.10
2018-07-24T10:16:14.980Z,16.30
2018-07-24T10:18:42.554Z,16.23
2018-07-24T10:21:10.121Z,15.20
2018-07-24T10:23:37.786Z,15.67
2018-07-24T10:26:05.678Z,16.30
2018-07-24T10:28:33.208Z,16.17
2018-07-24T10:31:00.884Z,17.67
2018-07-24T10:33:28.500Z,15.63
2018-07-24T10:35:56.146Z,16.60
2018-07-24T10:38:23.762Z,14.80
2018-07-24T10:40:51.355Z,15.33
2018-07-24T10:43:18.993Z,15.93
2018-07-24T10:45:46.603Z,14.67
2018-07-24T10:48:14.260Z,15.03
2018-07-24T10:50:41.841Z,16.23
2018-07-24T10:53:09.504Z,15.50
2018-07-24T10:55:38.153Z,13.47
2018-07-24T10:58:05.856Z,13.50
2018-07-24T11:00:33.619Z,13.10
2018-07-24T11:03:01.250Z,11.90
2018-07-24T11:05:28.822Z,12.10
2018-07-24T11:07:56.628Z,12.83
2018-07-24T11:10:24.215Z,13.10
2018-07-24T11:12:51.872Z,11.40
2018-07-24T11:15:19.568Z,11.40
2018-07-24T11:17:47.479Z,11.83
2018-07-24T11:20:15.728Z,12.20
2018-07-24T11:22:43.381Z,11.80
2018-07-24T11:25:10.987Z,12.80
2018-07-24T11:27:38.623Z,12.30
2018-07-24T11:30:06.707Z,12.27
2018-07-24T11:32:34.332Z,13.37
2018-07-24T11:35:01.972Z,11.80
2018-07-24T11:37:29.511Z,11.60
2018-07-24T11:39:57.175Z,12.27
2018-07-24T11:42:25.238Z,12.47
2018-07-24T11:44:53.414Z,10.87
2018-07-24T11:47:21.056Z,11.87
2018-07-24T11:49:48.725Z,11.77
2018-07-24T11:52:16.374Z,11.23
2018-07-24T11:54:43.969Z,11.50
2018-07-24T11:57:11.665Z,11.10
2018-07-24T11:59:39.332Z,10.27
2018-07-24T12:02:07.065Z,10.17
2018-07-24T12:04:34.685Z,10.67
2018-07-24T12:07:02.389Z,10.90
2018-07-24T12:09:30.013Z,10.53
2018-07-24T12:11:59.179Z,10.97
2018-07-24T12:14:26.822Z,10.67
2018-07-24T12:16:54.574Z,11.80
2018-07-24T12:19:22.423Z,10.33
2018-07-24T12:21:50.321Z,10.70
2018-07-24T12:24:18.524Z,11.43
2018-07-24T12:26:47.036Z,10.40
2018-07-24T12:29:14.709Z,9.80
2018-07-24T12:31:42.508Z,10.33
2018-07-24T12:34:10.210Z,10.33
2018-07-24T12:36:37.695Z,10.10
2018-07-24T12:39:07.600Z,10.17
2018-07-24T12:41:35.976Z,9.70
2018-07-24T12:44:03.676Z,10.33
2018-07-24T12:46:31.753Z,10.40
2018-07-24T12:48:59.367Z,10.10
2018-07-24T12:51:27.688Z,9.53
2018-07-24T12:53:56.200Z,10.20
2018-07-24T12:56:23.834Z,9.00
2018-07-24T12:58:51.527Z,9.57
2018-07-24T13:01:19.068Z,9.73
2018-07-24T13:03:46.703Z,10.20
2018-07-24T13:06:14.275Z,9.17
2018-07-24T13:08:41.920Z,10.30
2018-07-24T13:11:09.561Z,9.23
2018-07-24T13:13:38.121Z,8.73
2018-07-24T13:16:05.692Z,8.77
2018-07-24T13:18:33.261Z,9.20
2018-07-24T13:21:00.852Z,10.00
2018-07-24T13:23:29.063Z,9.00
2018-07-24T13:25:56.660Z,9.30
2018-07-24T13:28:24.247Z,9.73
2018-07-24T13:30:51.896Z,9.17
2018-07-24T13:33:19.461Z,8.90
2018-07-24T13:35:47.059Z,9.37
2018-07-24T13:38:14.636Z,9.67
2018-07-24T13:40:42.231Z,8.63
2018-07-24T13:43:10.800Z,9.80
2018-07-24T13:45:38.400Z,10.37
2018-07-24T13:48:06.059Z,9.90
2018-07-24T13:50:33.686Z,9.97
2018-07-24T13:53:01.806Z,9.30
2018-07-24T13:55:29.363Z,9.07
2018-07-24T13:57:57.603Z,10.50
2018-07-24T14:00:25.136Z,8.50
2018-07-24T14:02:52.712Z,9.43
2018-07-24T14:05:20.347Z,7.73
2018-07-24T14:07:47.940Z,9.57
2018-07-24T14:10:16.348Z,9.50
2018-07-24T14:12:44.350Z,10.33
2018-07-24T14:15:11.940Z,8.70
2018-07-24T14:17:39.499Z,9.07
2018-07-24T14:20:07.094Z,9.80
2018-07-24T14:22:35.685Z,9.33
2018-07-24T14:25:03.334Z,9.07
2018-07-24T14:27:31.722Z,9.30
2018-07-24T14:29:59.348Z,8.60
2018-07-24T14:32:26.983Z,9.30
2018-07-24T14:34:54.508Z,8.87
2018-07-24T14:37:22.142Z,9.10
2018-07-24T14:39:49.723Z,9.00
2018-07-24T14:42:17.387Z,9.00
2018-07-24T14:44:45.065Z,9.57
2018-07-24T14:47:12.635Z,9.53
2018-07-24T14:49:40.224Z,9.63
2018-07-24T14:52:07.928Z,10.47
2018-07-24T14:54:35.550Z,9.50
2018-07-24T14:57:03.191Z,9.90
2018-07-24T14:59:30.822Z,9.40
2018-07-24T15:01:58.435Z,10.17
2018-07-24T15:04:26.057Z,9.50
2018-07-24T15:06:53.680Z,9.60
2018-07-24T15:09:24.811Z,11.00
2018-07-24T15:11:52.955Z,10.17
2018-07-24T15:14:20.607Z,10.17
2018-07-24T15:16:49.042Z,10.03
2018-07-24T15:19:16.677Z,9.50
2018-07-24T15:21:44.258Z,9.37
2018-07-24T15:24:11.823Z,8.70
2018-07-24T15:26:39.440Z,9.80
2018-07-24T15:29:07.152Z,9.33
2018-07-24T15:31:34.728Z,10.23
2018-07-24T15:34:02.572Z,9.47
2018-07-24T15:36:30.124Z,9.50
2018-07-24T15:38:57.744Z,9.97
2018-07-24T15:41:25.414Z,10.43
2018-07-24T15:43:53.544Z,9.43
2018-07-24T15:46:21.145Z,9.87
2018-07-24T15:48:48.743Z,8.67
2018-07-24T15:51:16.359Z,8.70
2018-07-24T15:53:43.929Z,9.40
2018-07-24T15:56:11.557Z,8.60
2018-07-24T15:58:39.099Z,9.40
2018-07-24T16:01:06.735Z,8.90
2018-07-24T16:03:34.337Z,8.63
2018-07-24T16:06:01.996Z,8.90
2018-07-24T16:08:29.627Z,9.50
2018-07-24T16:10:57.190Z,9.20
2018-07-24T16:13:24.815Z,10.33
2018-07-24T16:18:26.741Z,8.93
2018-07-24T16:20:54.282Z,10.37
2018-07-24T16:23:21.910Z,9.37
2018-07-24T16:25:49.572Z,9.40
2018-07-24T16:28:17.266Z,9.03
2018-07-24T16:30:44.875Z,8.87
2018-07-24T16:33:12.545Z,9.93
2018-07-24T16:35:40.163Z,9.77
2018-07-24T16:38:07.783Z,9.40
2018-07-24T16:40:36.446Z,10.37
2018-07-24T16:43:04.125Z,9.50
2018-07-24T16:45:32.705Z,9.10
2018-07-24T16:48:00.355Z,9.20
2018-07-24T16:50:28.646Z,9.80
2018-07-24T16:52:56.266Z,9.33
2018-07-24T16:55:23.914Z,9.00
2018-07-24T16:57:51.688Z,9.47
2018-07-24T17:00:19.342Z,9.93
2018-07-24T17:02:46.999Z,9.70
2018-07-24T17:05:14.532Z,9.93
2018-07-24T17:07:42.907Z,9.63
2018-07-24T17:10:10.504Z,10.70
2018-07-24T17:12:38.456Z,9.50
2018-07-24T17:15:06.412Z,9.00
2018-07-24T17:17:34.055Z,10.10
2018-07-24T17:20:01.668Z,10.20
2018-07-24T17:22:29.414Z,9.60
2018-07-24T17:24:56.995Z,9.67
2018-07-24T17:27:24.854Z,9.37
2018-07-24T17:29:52.494Z,9.90
2018-07-24T17:32:20.230Z,11.00
2018-07-24T17:34:47.822Z,9.13
2018-07-24T17:37:15.493Z,9.03
2018-07-24T17:39:43.866Z,9.13
2018-07-24T17:42:11.510Z,9.70
2018-07-24T17:44:39.100Z,9.20
2018-07-24T17:47:06.756Z,9.27
2018-07-24T17:49:34.322Z,9.00
2018-07-24T17:52:01.970Z,9.57
2018-07-24T17:54:29.724Z,9.47
2018-07-24T17:56:57.358Z,8.60
2018-07-24T17:59:24.976Z,7.83
2018-07-24T18:01:52.661Z,9.97
2018-07-24T18:04:20.329Z,8.90
2018-07-24T18:06:49.365Z,9.07
2018-07-24T18:09:17.052Z,8.53
2018-07-24T18:11:44.651Z,8.13
2018-07-24T18:14:13.213Z,8.93
2018-07-24T18:16:41.826Z,8.63
2018-07-24T18:19:09.731Z,9.10
2018-07-24T18:21:37.392Z,8.83
2018-07-24T18:24:05.093Z,9.37
2018-07-24T18:26:32.849Z,9.03
2018-07-24T18:29:00.458Z,8.50
2018-07-24T18:31:28.115Z,8.60
2018-07-24T18:33:55.754Z,8.47
2018-07-24T18:36:23.428Z,8.77
2018-07-24T18:38:51.591Z,8.27
2018-07-24T18:41:19.248Z,8.10
2018-07-24T18:43:47.160Z,8.17
2018-07-24T18:46:14.832Z,8.70
2018-07-24T18:48:42.524Z,7.87
2018-07-24T18:51:10.181Z,8.53
2018-07-24T18:53:37.880Z,9.50
2018-07-24T18:56:05.594Z,8.40
2018-07-24T18:58:34.196Z,9.57
2018-07-24T19:01:02.023Z,8.43
2018-07-24T19:03:29.878Z,9.10
2018-07-24T19:05:57.547Z,9.40
2018-07-24T19:08:25.286Z,9.00
2018-07-24T19:10:53.020Z,8.77
2018-07-24T19:13:20.817Z,9.67
2018-07-24T19:15:48.580Z,8.80
2018-07-24T19:18:16.586Z,9.03
2018-07-24T19:20:44.421Z,8.13
2018-07-24T19:23:12.900Z,9.17
2018-07-24T19:25:40.834Z,9.60
2018-07-24T19:28:08.812Z,9.67
2018-07-24T19:30:36.740Z,8.93
2018-07-24T19:33:04.718Z,8.83
2018-07-24T19:35:32.588Z,9.57
2018-07-24T19:38:00.577Z,9.27
2018-07-24T19:40:28.530Z,9.53
2018-07-24T19:42:57.482Z,9.60
2018-07-24T19:45:26.089Z,10.50
2018-07-24T19:47:54.132Z,10.40
2018-07-24T19:50:22.061Z,10.23
2018-07-24T19:52:50.953Z,9.87
2018-07-24T19:55:19.031Z,9.87
2018-07-24T19:57:46.913Z,10.30
2018-07-24T20:00:14.771Z,10.50
2018-07-24T20:02:42.629Z,10.90
2018-07-24T20:05:11.133Z,10.60
2018-07-24T20:07:39.057Z,11.17
2018-07-24T20:10:07.132Z,11.83
2018-07-24T20:12:35.108Z,12.23
2018-07-24T20:15:03.031Z,12.20
2018-07-24T20:17:31.057Z,11.30
2018-07-24T20:19:58.848Z,11.93
2018-07-24T20:22:26.591Z,10.73
2018-07-24T20:24:54.327Z,11.23
2018-07-24T20:27:22.165Z,11.80
2018-07-24T20:29:49.917Z,12.57
2018-07-24T20:32:17.579Z,11.90
2018-07-24T20:34:45.279Z,11.60
2018-07-24T20:37:12.986Z,12.60
2018-07-24T20:39:40.632Z,11.43
2018-07-24T20:42:08.236Z,11.53
2018-07-24T20:44:36.745Z,12.40
2018-07-24T20:47:04.404Z,11.97
2018-07-24T20:49:32.026Z,11.00
2018-07-24T20:51:59.680Z,11.40
2018-07-24T20:54:27.342Z,12.10
2018-07-24T20:56:54.900Z,12.40
2018-07-24T20:59:23.414Z,13.10
2018-07-24T21:01:50.972Z,13.03
2018-07-24T21:04:18.625Z,11.97
2018-07-24T21:06:46.176Z,12.97
2018-07-24T21:09:13.808Z,12.67
2018-07-24T21:11:42.158Z,12.80
2018-07-24T21:14:10.080Z,12.80
2018-07-24T21:16:37.781Z,12.97
2018-07-24T21:19:05.865Z,12.73
2018-07-24T21:21:34.237Z,12.77
2018-07-24T21:24:01.898Z,14.20
2018-07-24T21:26:30.524Z,12.87
2018-07-24T21:28:58.228Z,13.03
2018-07-24T21:31:25.992Z,13.77
2018-07-24T21:33:53.683Z,13.73
2018-07-24T21:36:21.271Z,14.17
2018-07-24T21:38:48.874Z,11.80
2018-07-24T21:41:16.479Z,13.87
2018-07-24T21:43:44.005Z,14.83
2018-07-24T21:46:12.239Z,13.60
2018-07-24T21:48:39.841Z,13.13
2018-07-24T21:51:07.548Z,13.67
2018-07-24T21:53:41.843Z,13.60
2018-07-24T21:56:09.438Z,13.30
2018-07-24T21:58:37.003Z,12.80
2018-07-24T22:01:10.072Z,12.30
2018-07-24T22:03:37.655Z,13.70
2018-07-24T22:06:05.255Z,13.30
2018-07-24T22:08:32.968Z,12.87
2018-07-24T22:11:00.515Z,12.50
2018-07-24T22:13:29.062Z,12.63
2018-07-24T22:15:56.715Z,12.87
2018-07-24T22:18:24.295Z,12.40
2018-07-24T22:20:51.851Z,12.13
2018-07-24T22:23:19.440Z,13.37
2018-07-24T22:25:47.029Z,13.20
2018-07-24T22:28:14.617Z,13.30
2018-07-24T22:30:42.206Z,13.40
2018-07-24T22:33:09.783Z,13.20
2018-07-24T22:35:37.310Z,14.40
2018-07-24T22:38:04.949Z,14.30
2018-07-24T22:40:32.506Z,13.57
2018-07-24T22:43:00.085Z,14.77
2018-07-24T22:45:28.551Z,13.53
2018-07-24T22:47:56.187Z,14.30
2018-07-24T22:50:23.784Z,14.67
2018-07-24T22:52:51.328Z,14.20
2018-07-24T22:55:18.903Z,14.27
2018-07-24T22:57:47.296Z,13.87
2018-07-24T23:00:14.991Z,13.57
2018-07-24T23:02:42.564Z,15.00
2018-07-24T23:05:10.116Z,14.20
2018-07-24T23:07:37.702Z,14.60
2018-07-24T23:10:05.470Z,14.70
2018-07-24T23:12:33.068Z,14.30
2018-07-24T23:15:00.749Z,14.27
2018-07-24T23:17:28.456Z,14.97
2018-07-24T23:19:56.066Z,14.03
2018-07-24T23:22:23.672Z,14.87
2018-07-24T23:24:51.222Z,15.23
2018-07-24T23:27:18.790Z,14.23
2018-07-24T23:29:46.383Z,13.50
2018-07-24T23:32:14.043Z,13.97
2018-07-24T23:34:42.421Z,13.50
2018-07-24T23:37:09.939Z,14.10
2018-07-24T23:39:37.529Z,15.33
2018-07-24T23:42:05.127Z,16.20
2018-07-24T23:44:32.685Z,15.80
2018-07-24T23:47:00.237Z,14.87
2018-07-24T23:49:27.799Z,15.93
2018-07-24T23:51:55.347Z,16.10
2018-07-24T23:54:22.886Z,16.33
2018-07-24T23:56:50.411Z,15.37
2018-07-24T23:59:17.952Z,14.93
